Dades meteomassalio
Diari Summary for Noviembre 3, 2017 Units:  Metric    English   Both
« Previous Day
Next Day »
Diari Semanal Mensual Anual Personalitzat
  Maxima: Minima: Mijana:
Temperatura: -17.8 °C -15 °C -11.5 °C
Rosada: -17.8 °C -15.7 °C -13.6 °C
Humitat: Humidity % 47 % 79 %
Velocitat del vent: 0 km/h 0 km/h 2.3 km/h
Racha vent: 0 km/h - -
Vent:- - WSW
Pressio: 0 hPa 34337.4 hPa -
Pluja: 7.62 mm    
Historical Graphs
 
 
Tabular Data for Noviembre 3, 2017
Time Temperature Dew Point Pressure Wind Wind Speed Wind Gust Humidity Rainfall Rate (Hourly) solar Conditions
-17.8 °C -17.8 °C 0 hPa Calm     Humidity % 0 mm SolarRadiationWatts/m^2 W/m2 Conditions
00:00 -13.4 °C -14.6 °C 34533.8 hPa Calm     87 % 0 mm 0.0 W/m2 CLR
00:05 -13.4 °C -14.6 °C 34533.8 hPa Calm     87 % 0 mm 0.0 W/m2 CLR
00:10 -13.8 °C -14.9 °C 34533.8 hPa Calm     87 % 0 mm 0.0 W/m2 CLR
00:15 -13.8 °C -14.8 °C 34533.8 hPa Calm     88 % 0 mm 0.0 W/m2 CLR
00:20 -13.8 °C -14.8 °C 34533.8 hPa Calm     88 % 0 mm 0.0 W/m2 CLR
00:25 -13.8 °C -14.8 °C 34533.8 hPa Calm     88 % 0 mm 0.0 W/m2 CLR
00:30 -13.8 °C -14.7 °C 34533.8 hPa Calm     89 % 0 mm 0.0 W/m2 CLR
00:35 -13.8 °C -14.8 °C 34533.8 hPa Calm     88 % 0 mm 0.0 W/m2 CLR
00:40 -13.4 °C -14.5 °C 34533.8 hPa Calm     88 % 0 mm 0.0 W/m2 CLR
00:45 -13.8 °C -14.8 °C 34520.3 hPa Calm     88 % 0 mm 0.0 W/m2 CLR
00:51 -13.8 °C -14.7 °C 34520.3 hPa Calm     89 % 0 mm 0.0 W/m2 CLR
00:56 -13.8 °C -14.7 °C 34520.3 hPa Calm     89 % 0 mm 0.0 W/m2 CLR
01:01 -14.1 °C -15 °C 34520.3 hPa Calm     89 % 0 mm 0.0 W/m2 CLR
01:06 -14.1 °C -15 °C 34520.3 hPa Calm     89 % 0 mm 0.0 W/m2 CLR
01:11 -14.4 °C -15.3 °C 34520.3 hPa Calm     89 % 0 mm 0.0 W/m2 CLR
01:16 -14.4 °C -15.3 °C 34520.3 hPa Calm     89 % 0 mm 0.0 W/m2 CLR
01:21 -14.1 °C -15 °C 34520.3 hPa Calm     89 % 0 mm 0.0 W/m2 CLR
01:26 -14.1 °C -15 °C 34520.3 hPa Calm     89 % 0 mm 0.0 W/m2 CLR
01:31 -14.1 °C -14.9 °C 34520.3 hPa Calm     90 % 0 mm 0.0 W/m2 CLR
01:36 -14.1 °C -14.9 °C 34520.3 hPa Calm     90 % 0 mm 0.0 W/m2 CLR
01:41 -14.1 °C -14.9 °C 34520.3 hPa Calm     90 % 0 mm 0.0 W/m2 CLR
01:46 -14.4 °C -15.2 °C 34510.1 hPa Calm     90 % 0 mm 0.0 W/m2 CLR
01:51 -14.4 °C -15.2 °C 34510.1 hPa Calm     90 % 0 mm 0.0 W/m2 CLR
01:56 -14.4 °C -15.2 °C 34510.1 hPa Calm     90 % 0 mm 0.0 W/m2 CLR
02:01 -14.4 °C -15.2 °C 34510.1 hPa Calm     90 % 0 mm 0.0 W/m2 CLR
02:06 -14.4 °C -15.2 °C 34510.1 hPa Calm     90 % 0 mm 0.0 W/m2 CLR
02:11 -14.7 °C -15.5 °C 34496.6 hPa Calm     90 % 0 mm 0.0 W/m2 CLR
02:16 -14.7 °C -15.5 °C 34510.1 hPa Calm     90 % 0 mm 0.0 W/m2 CLR
02:21 -14.7 °C -15.5 °C 34496.6 hPa Calm     90 % 0 mm 0.0 W/m2 CLR
02:26 -14.4 °C -15.2 °C 34496.6 hPa Calm     90 % 0 mm 0.0 W/m2 CLR
02:31 -14.7 °C -15.5 °C 34496.6 hPa Calm     90 % 0 mm 0.0 W/m2 CLR
02:36 -14.7 °C -15.5 °C 34496.6 hPa Calm     90 % 0 mm 0.0 W/m2 CLR
02:41 -14.7 °C -15.5 °C 34496.6 hPa Calm     90 % 0 mm 0.0 W/m2 CLR
02:46 -14.7 °C -15.5 °C 34496.6 hPa Calm     90 % 0 mm 0.0 W/m2 CLR
02:51 -14.7 °C -15.4 °C 34496.6 hPa Calm     91 % 0 mm 0.0 W/m2 CLR
02:56 -14.7 °C -15.4 °C 34486.4 hPa Calm     91 % 0 mm 0.0 W/m2 CLR
03:01 -14.7 °C -15.4 °C 34486.4 hPa Calm     91 % 0 mm 0.0 W/m2 CLR
03:06 -15 °C -15.7 °C 34486.4 hPa Calm     91 % 0 mm 0.0 W/m2 CLR
03:11 -15 °C -15.7 °C 34486.4 hPa Calm     91 % 0 mm 0.0 W/m2 CLR
03:16 -14.7 °C -15.4 °C 34476.3 hPa Calm     91 % 0 mm 0.0 W/m2 CLR
03:21 -14.7 °C -15.4 °C 34486.4 hPa Calm     91 % 0 mm 0.0 W/m2 CLR
03:26 -14.4 °C -15.1 °C 34486.4 hPa Calm     91 % 0 mm 0.0 W/m2 CLR
03:31 -14.4 °C -15.1 °C 34486.4 hPa Calm     91 % 0 mm 0.0 W/m2 CLR
03:36 -14.7 °C -15.5 °C 34476.3 hPa Calm     90 % 0 mm 0.0 W/m2 CLR
03:41 -14.4 °C -15.1 °C 34486.4 hPa Calm     91 % 0 mm 0.0 W/m2 CLR
03:46 -14.7 °C -15.4 °C 34486.4 hPa Calm     91 % 0 mm 0.0 W/m2 CLR
03:51 -14.7 °C -15.4 °C 34476.3 hPa Calm     91 % 0 mm 0.0 W/m2 CLR
03:56 -14.7 °C -15.4 °C 34476.3 hPa Calm     91 % 0 mm 0.0 W/m2 CLR
04:01 -14.7 °C -15.4 °C 34476.3 hPa Calm     91 % 0 mm 0.0 W/m2 CLR
04:06 -14.7 °C -15.4 °C 34462.7 hPa Calm     92 % 0 mm 0.0 W/m2 CLR
04:11 -14.7 °C -15.4 °C 34476.3 hPa Calm     92 % 0 mm 0.0 W/m2 CLR
04:16 -14.7 °C -15.4 °C 34476.3 hPa Calm     92 % 0 mm 0.0 W/m2 CLR
04:21 -14.7 °C -15.4 °C 34462.7 hPa Calm     92 % 0 mm 0.0 W/m2 CLR
04:22 -14.7 °C -15.4 °C 34462.7 hPa Calm     91 % 0 mm 0.0 W/m2 CLR
04:26 -14.7 °C -15.4 °C 34462.7 hPa Calm     91 % 0 mm 0.0 W/m2 CLR
04:31 -14.7 °C -15.4 °C 34462.7 hPa Calm     91 % 0 mm 0.0 W/m2 CLR
04:33 -14.7 °C -15.4 °C 34462.7 hPa Calm     91 % 0 mm 0.0 W/m2 CLR
04:38 -14.7 °C -15.4 °C 34462.7 hPa Calm     91 % 0 mm 0.0 W/m2 CLR
04:43 -14.7 °C -15.4 °C 34462.7 hPa Calm     91 % 0 mm 0.0 W/m2 CLR
04:48 -14.7 °C -15.4 °C 34462.7 hPa Calm     91 % 0 mm 0.0 W/m2 CLR
04:53 -14.4 °C -15.1 °C 34462.7 hPa Calm     91 % 0 mm 0.0 W/m2 CLR
04:58 -14.4 °C -15.1 °C 34462.7 hPa Calm     92 % 0 mm 0.0 W/m2 CLR
05:03 -14.4 °C -15.1 °C 34462.7 hPa Calm     92 % 0 mm 0.0 W/m2 CLR
05:08 -14.7 °C -15.4 °C 34462.7 hPa Calm     92 % 0 mm 0.0 W/m2 CLR
05:13 -14.7 °C -15.4 °C 34462.7 hPa Calm     92 % 0 mm 0.0 W/m2 CLR
05:18 -14.7 °C -15.4 °C 34462.7 hPa Calm     92 % 0 mm 0.0 W/m2 CLR
05:23 -14.7 °C -15.4 °C 34452.6 hPa Calm     92 % 0 mm 0.0 W/m2 CLR
05:28 -15 °C -15.7 °C 34452.6 hPa Calm     92 % 0 mm 0.0 W/m2 CLR
05:29 -15 °C -15.7 °C 34452.6 hPa Calm     92 % 0 mm 0.0 W/m2 CLR
05:34 -15 °C -15.7 °C 34452.6 hPa Calm     92 % 0 mm 0.0 W/m2 CLR
05:39 -15 °C -15.7 °C 34452.6 hPa Calm     92 % 0 mm 0.0 W/m2 CLR
05:44 -15 °C -15.7 °C 34452.6 hPa Calm     92 % 0 mm 0.0 W/m2 CLR
05:49 -15 °C -15.7 °C 34442.4 hPa Calm     92 % 0 mm 0.0 W/m2 CLR
05:54 -14.7 °C -15.4 °C 34452.6 hPa Calm     91 % 0 mm 0.0 W/m2 CLR
05:59 -14.7 °C -15.4 °C 34442.4 hPa Calm     92 % 0 mm 0.0 W/m2 CLR
06:04 -14.7 °C -15.4 °C 34452.6 hPa Calm     92 % 0 mm 0.0 W/m2 CLR
06:09 -14.7 °C -15.4 °C 34442.4 hPa Calm     92 % 0 mm 0.0 W/m2 CLR
06:14 -14.7 °C -15.4 °C 34442.4 hPa Calm     92 % 0 mm 0.0 W/m2 CLR
06:19 -14.7 °C -15.4 °C 34442.4 hPa Calm     92 % 0 mm 0.0 W/m2 CLR
06:24 -14.7 °C -15.4 °C 34442.4 hPa Calm     92 % 0 mm 0.0 W/m2 CLR
06:29 -14.7 °C -15.4 °C 34428.8 hPa Calm     92 % 0 mm 0.0 W/m2 CLR
06:34 -14.7 °C -15.4 °C 34442.4 hPa Calm     92 % 0 mm 0.0 W/m2 CLR
06:39 -14.7 °C -15.4 °C 34442.4 hPa Calm     92 % 0 mm 0.0 W/m2 CLR
06:49 -14.7 °C -15.4 °C 34442.4 hPa Calm     92 % 0 mm 0.0 W/m2 CLR
06:54 -14.7 °C -15.4 °C 34442.4 hPa Calm     92 % 0 mm 0.0 W/m2 CLR
06:59 -14.7 °C -15.4 °C 34428.8 hPa Calm     92 % 0 mm 0.0 W/m2 CLR
07:04 -14.7 °C -15.4 °C 34442.4 hPa Calm     92 % 0 mm 0.0 W/m2 CLR
07:09 -15 °C -15.7 °C 34442.4 hPa Calm     92 % 0 mm 0.0 W/m2 CLR
07:14 -15 °C -15.7 °C 34442.4 hPa Calm     92 % 0 mm 0.0 W/m2 CLR
07:19 -15 °C -15.7 °C 34442.4 hPa Calm     92 % 0 mm 0.0 W/m2 CLR
07:24 -15 °C -15.7 °C 34442.4 hPa Calm     92 % 0 mm 5.0 W/m2 OVC
07:29 -15 °C -15.7 °C 34442.4 hPa Calm     92 % 0 mm 9.0 W/m2 OVC
07:34 -15 °C -15.7 °C 34442.4 hPa Calm     92 % 0 mm 11.0 W/m2 OVC
07:39 -15 °C -15.7 °C 34442.4 hPa Calm     92 % 0 mm 11.0 W/m2 OVC
07:44 -15 °C -15.7 °C 34442.4 hPa Calm     92 % 0 mm 11.0 W/m2 OVC
07:49 -15 °C -15.7 °C 34442.4 hPa Calm     92 % 0 mm 12.0 W/m2 OVC
07:54 -15 °C -15.7 °C 34428.8 hPa Calm     92 % 0 mm 12.0 W/m2 OVC
07:59 -15 °C -15.7 °C 34442.4 hPa Calm     92 % 0 mm 18.0 W/m2 OVC
08:04 -15 °C -15.7 °C 34428.8 hPa Calm     92 % 0 mm 26.0 W/m2 OVC
08:09 -14.7 °C -15.4 °C 34442.4 hPa Calm     92 % 0 mm 32.0 W/m2 OVC
08:14 -14.7 °C -15.4 °C 34442.4 hPa Calm     92 % 0 mm 39.0 W/m2 OVC
08:19 -14.7 °C -15.4 °C 34452.6 hPa Calm     92 % 0 mm 42.0 W/m2 OVC
08:24 -14.7 °C -15.3 °C 34452.6 hPa Calm     93 % 0 mm 33.0 W/m2 OVC
08:29 -14.7 °C -15.4 °C 34452.6 hPa Calm     92 % 0 mm 37.0 W/m2 OVC
08:34 -14.7 °C -15.4 °C 34452.6 hPa Calm     92 % 0 mm 44.0 W/m2 OVC
08:39 -14.7 °C -15.4 °C 34452.6 hPa Calm     92 % 0 mm 58.0 W/m2 BKN
08:44 -14.7 °C -15.3 °C 34452.6 hPa Calm     93 % 0 mm 60.0 W/m2 SCT
08:49 -14.7 °C -15.3 °C 34462.7 hPa Calm     93 % 0 mm 67.0 W/m2 SCT
08:54 -14.4 °C -15.1 °C 34452.6 hPa Calm     92 % 0 mm 130.0 W/m2 FEW
08:59 -14.4 °C -15.1 °C 34452.6 hPa Calm     92 % 0 mm 93.0 W/m2 CLR
09:04 -14.1 °C -14.8 °C 34452.6 hPa Calm     92 % 0 mm 109.0 W/m2 CLR
09:09 -14.1 °C -14.8 °C 34452.6 hPa Calm     92 % 0 mm 195.0 W/m2 CLR
09:10 -13.8 °C -14.4 °C 34452.6 hPa Calm     92 % 0 mm 195.0 W/m2 CLR
09:15 -13.8 °C -14.4 °C 34462.7 hPa Calm     92 % 0 mm 163.0 W/m2 CLR
09:20 -13.4 °C -14.2 °C 34462.7 hPa Calm     91 % 0 mm 197.0 W/m2 CLR
09:25 -13.4 °C -14.2 °C 34462.7 hPa Calm     91 % 0 mm 220.0 W/m2 CLR
09:30 -13.2 °C -14 °C 34462.7 hPa Calm     90 % 0 mm 209.0 W/m2 CLR
09:35 -12.8 °C -13.7 °C 34462.7 hPa Calm     90 % 0 mm 234.0 W/m2 CLR
09:40 -12.6 °C -13.6 °C 34452.6 hPa Calm     88 % 0 mm 279.0 W/m2 CLR
09:45 -12.6 °C -13.7 °C 34462.7 hPa Calm     87 % 0 mm 308.0 W/m2 CLR
09:50 -12.2 °C -13.4 °C 34462.7 hPa Calm     87 % 0 mm 327.0 W/m2 CLR
09:55 -11.9 °C -13.3 °C 34462.7 hPa Calm     85 % 0 mm 352.0 W/m2 CLR
10:00 -11.9 °C -13.4 °C 34462.7 hPa Calm     84 % 7.62 mm 132.0 W/m2 RA
10:05 -11.9 °C -13.6 °C 34462.7 hPa Calm     82 % 7.62 mm 144.0 W/m2 CLR
10:10 -11.6 °C -13.4 °C 34462.7 hPa Calm     81 % 7.62 mm 155.0 W/m2 CLR
10:16 -11.6 °C -13.4 °C 34452.6 hPa Calm     81 % 7.62 mm 178.0 W/m2 CLR
10:21 -11.3 °C -12.9 °C 34462.7 hPa Calm     82 % 7.62 mm 190.0 W/m2 CLR
10:26 -11.3 °C -12.9 °C 34462.7 hPa Calm     82 % 7.62 mm 169.0 W/m2 CLR
10:31 -11 °C -12.7 °C 34462.7 hPa Calm     82 % 7.62 mm 172.0 W/m2 CLR
10:36 -11 °C -12.7 °C 34462.7 hPa Calm     82 % 7.62 mm 186.0 W/m2 CLR
10:41 -10.7 °C -12.4 °C 34462.7 hPa Calm     81 % 7.62 mm 188.0 W/m2 CLR
10:46 -10.7 °C -12.4 °C 34462.7 hPa Calm     81 % 7.62 mm 171.0 W/m2 CLR
10:51 -10.7 °C -12.4 °C 34462.7 hPa Calm     81 % 7.62 mm 230.0 W/m2 CLR
10:56 -10.4 °C -12.1 °C 34462.7 hPa Calm     81 % 7.62 mm 241.0 W/m2 CLR
11:01 -10.4 °C -12.1 °C 34462.7 hPa Calm     81 % 0 mm 202.0 W/m2 CLR
11:06 -10.1 °C -11.9 °C 34462.7 hPa Calm     80 % 0 mm 202.0 W/m2 CLR
11:11 -10.1 °C -11.9 °C 34462.7 hPa Calm     80 % 0 mm 183.0 W/m2 CLR
11:16 -10.1 °C -12.1 °C 34452.6 hPa Calm     79 % 0 mm 236.0 W/m2 CLR
11:21 -9.8 °C -11.8 °C 34452.6 hPa Calm     79 % 0 mm 309.0 W/m2 CLR
11:26 -9.8 °C -11.8 °C 34452.6 hPa Calm     78 % 0 mm 443.0 W/m2 CLR
11:31 -9.4 °C -11.8 °C 34452.6 hPa Calm     76 % 0 mm 262.0 W/m2 CLR
11:36 -9.4 °C -12 °C 34452.6 hPa Calm     74 % 0 mm 316.0 W/m2 CLR
11:38 -9.4 °C -11.9 °C 34452.6 hPa Calm     75 % 0 mm 640.0 W/m2 CLR
11:43 -8.8 °C -11.4 °C 34452.6 hPa Calm     74 % 0 mm 677.0 W/m2 CLR
11:48 -8.8 °C -11.5 °C 34442.4 hPa Calm     73 % 0 mm 294.0 W/m2 CLR
11:53 -8.5 °C -11.4 °C 34442.4 hPa Calm     71 % 0 mm 267.0 W/m2 CLR
11:58 -8.5 °C -11.6 °C 34442.4 hPa Calm     70 % 0 mm 308.0 W/m2 CLR
12:03 -8.5 °C -11.6 °C 34442.4 hPa West 2.6 km/h 2.6 km/h 70 % 0 mm 381.0 W/m2 CLR
12:08 -8.2 °C -11.4 °C 34442.4 hPa Calm     69 % 0 mm 589.0 W/m2 CLR
12:13 -8.2 °C -11.5 °C 34428.8 hPa Calm     68 % 0 mm 649.0 W/m2 CLR
12:18 -7.9 °C -11.3 °C 34428.8 hPa Calm     67 % 0 mm 341.0 W/m2 CLR
12:23 -7.9 °C -11.5 °C 34428.8 hPa Calm     66 % 0 mm 448.0 W/m2 CLR
12:28 -7.9 °C -11.3 °C 34428.8 hPa NW 11.9 km/h 11.9 km/h 67 % 0 mm 227.0 W/m2 CLR
12:33 -7.9 °C -11.3 °C 34418.7 hPa Calm     67 % 0 mm 555.0 W/m2 CLR
12:38 -7.6 °C -11.2 °C 34418.7 hPa NNW 6 km/h   66 % 0 mm 591.0 W/m2 CLR
12:48 -7.3 °C -11 °C 34418.7 hPa NNW 10.3 km/h 10.3 km/h 65 % 0 mm 515.0 W/m2 CLR
12:53 -7.3 °C -11 °C 34405.1 hPa NW 9 km/h 9 km/h 65 % 0 mm 473.0 W/m2 CLR
12:58 -7.3 °C -11.2 °C 34405.1 hPa NW 10.3 km/h 10.3 km/h 64 % 0 mm 385.0 W/m2 CLR
13:03 -7.3 °C -11.3 °C 34405.1 hPa Calm     63 % 0 mm 243.0 W/m2 CLR
13:08 -7.3 °C -11.2 °C 34405.1 hPa Calm     64 % 0 mm 283.0 W/m2 CLR
13:13 -7.3 °C -11.3 °C 34395 hPa Calm     63 % 0 mm 364.0 W/m2 CLR
13:18 -7.3 °C -11.3 °C 34395 hPa NNW 9 km/h   63 % 0 mm 295.0 W/m2 CLR
13:23 -7.3 °C -11.3 °C 34395 hPa Calm     63 % 0 mm 545.0 W/m2 CLR
13:28 -7 °C -11 °C 34395 hPa NW 9 km/h 9 km/h 63 % 0 mm 570.0 W/m2 CLR
13:33 -6.7 °C -11 °C 34395 hPa NNW 6 km/h 6 km/h 61 % 0 mm 557.0 W/m2 CLR
13:38 -6.7 °C -11.1 °C 34384.8 hPa NW 10.3 km/h 10.3 km/h 60 % 0 mm 311.0 W/m2 CLR
13:48 -6.7 °C -11.3 °C 34384.8 hPa NW 11.9 km/h 11.9 km/h 59 % 0 mm 557.0 W/m2 CLR
13:53 -6.3 °C -10.9 °C 34371.3 hPa WNW 10.3 km/h 10.3 km/h 59 % 0 mm 510.0 W/m2 CLR
13:58 -6.3 °C -11.3 °C 34371.3 hPa WNW 9 km/h 9 km/h 57 % 0 mm 373.0 W/m2 CLR
14:03 -6.3 °C -11.4 °C 34371.3 hPa NW 10.3 km/h 10.3 km/h 56 % 0 mm 380.0 W/m2 CLR
14:08 -6.1 °C -11.4 °C 34371.3 hPa WNW 9 km/h 9 km/h 54 % 0 mm 526.0 W/m2 CLR
14:13 -5.7 °C -11.3 °C 34361.1 hPa Calm     53 % 0 mm 496.0 W/m2 CLR
14:18 -5.7 °C -11.4 °C 34361.1 hPa Calm     52 % 0 mm 536.0 W/m2 CLR
14:23 -5.4 °C -11.5 °C 34361.1 hPa NNW 11.9 km/h 11.9 km/h 50 % 0 mm 506.0 W/m2 CLR
14:28 -5.4 °C -11.3 °C 34347.6 hPa North 15 km/h 15 km/h 51 % 0 mm 490.0 W/m2 CLR
14:33 -5.1 °C -11.2 °C 34347.6 hPa NNW 9 km/h 9 km/h 50 % 0 mm 482.0 W/m2 CLR
14:38 -5.1 °C -11.2 °C 34347.6 hPa NW 20.9 km/h   50 % 0 mm 464.0 W/m2 CLR
14:43 -5.1 °C -11.6 °C 34347.6 hPa North 11.9 km/h 11.9 km/h 48 % 0 mm 443.0 W/m2 CLR
14:48 -5.4 °C -12 °C 34347.6 hPa NW 23.8 km/h 23.8 km/h 47 % 0 mm 431.0 W/m2 CLR
14:53 -5.4 °C -12 °C 34347.6 hPa NNW 26.9 km/h 26.9 km/h 47 % 0 mm 415.0 W/m2 CLR
14:58 -5.4 °C -11.8 °C 34347.6 hPa NNW 26.9 km/h 26.9 km/h 48 % 0 mm 408.0 W/m2 CLR
15:03 -5.4 °C -11.7 °C 34347.6 hPa North 23.8 km/h 23.8 km/h 49 % 0 mm 378.0 W/m2 CLR
15:08 -5.7 °C -12.1 °C 34347.6 hPa NW 20.9 km/h 20.9 km/h 48 % 0 mm 227.0 W/m2 CLR
15:13 -5.7 °C -11.9 °C 34337.4 hPa NNW 15 km/h 15 km/h 49 % 0 mm 176.0 W/m2 CLR
15:18 -5.7 °C -11.8 °C 34337.4 hPa NW 9 km/h 9 km/h 50 % 0 mm 294.0 W/m2 CLR
15:23 -5.4 °C -11.5 °C 34347.6 hPa NW 12.9 km/h 12.9 km/h 50 % 0 mm 367.0 W/m2 CLR
15:28 -5.4 °C -11.7 °C 34347.6 hPa NNW 23.8 km/h 23.8 km/h 49 % 0 mm 366.0 W/m2 CLR
15:33 -5.4 °C -11.7 °C 34337.4 hPa Calm     49 % 0 mm 332.0 W/m2 CLR
15:38 -5.4 °C -11.7 °C 34337.4 hPa NW 17.9 km/h 17.9 km/h 49 % 0 mm 338.0 W/m2 CLR
15:43 -5.4 °C -11.7 °C 34337.4 hPa Calm     49 % 0 mm 318.0 W/m2 CLR
15:48 -5.4 °C -11.8 °C 34347.6 hPa NNW 9 km/h 9 km/h 48 % 0 mm 297.0 W/m2 CLR
15:53 -5.4 °C -11.8 °C 34347.6 hPa NNW 26.9 km/h 26.9 km/h 48 % 0 mm 121.0 W/m2 CLR
15:58 -5.7 °C -11.9 °C 34347.6 hPa NW 15 km/h 15 km/h 49 % 0 mm 279.0 W/m2 CLR
16:03 -5.7 °C -11.8 °C 34347.6 hPa Calm     50 % 0 mm 269.0 W/m2 CLR
16:08 -5.7 °C -11.8 °C 34347.6 hPa NNE 15.6 km/h 15.6 km/h 50 % 0 mm 255.0 W/m2 CLR
16:13 -5.7 °C -11.6 °C 34347.6 hPa North 17.9 km/h 17.9 km/h 51 % 0 mm 211.0 W/m2 CLR
16:18 -5.7 °C -11.3 °C 34347.6 hPa Calm   0.8 km/h 53 % 0 mm 153.0 W/m2 CLR
16:23 -6.1 °C -11.4 °C 34347.6 hPa NE 20.9 km/h 20.9 km/h 54 % 0 mm 56.0 W/m2 CLR
16:28 -6.3 °C -11.6 °C 34347.6 hPa NNE 9 km/h 9 km/h 55 % 0 mm 72.0 W/m2 FEW
16:33 -6.3 °C -11.4 °C 34347.6 hPa Calm   6.3 km/h 56 % 0 mm 65.0 W/m2 SCT
16:38 -6.7 °C -11.6 °C 34347.6 hPa NNE 5.1 km/h 5.1 km/h 57 % 0 mm 63.0 W/m2 SCT
16:43 -6.7 °C -11.6 °C 34337.4 hPa Calm     57 % 0 mm 84.0 W/m2 FEW
16:48 -7 °C -11.8 °C 34337.4 hPa NNE 11.9 km/h 11.9 km/h 57 % 0 mm 84.0 W/m2 FEW
16:49 -7 °C -11.8 °C 34337.4 hPa NNE 6 km/h 6 km/h 57 % 0 mm 84.0 W/m2 FEW
16:54 -6.7 °C -11.4 °C 34337.4 hPa NNE 9 km/h 9 km/h 58 % 0 mm 79.0 W/m2 FEW
16:59 -6.7 °C -11.1 °C 34337.4 hPa NNE 11.9 km/h 11.9 km/h 60 % 0 mm 95.0 W/m2 CLR
17:04 -7 °C -11.2 °C 34347.6 hPa NNE 20.9 km/h 20.9 km/h 62 % 0 mm 63.0 W/m2 SCT
17:09 -7 °C -11 °C 34347.6 hPa NNE 12.9 km/h 12.9 km/h 63 % 0 mm 53.0 W/m2 SCT
17:14 -7 °C -10.9 °C 34337.4 hPa NNE 12.9 km/h 12.9 km/h 64 % 0 mm 60.0 W/m2 SCT
17:19 -7.3 °C -10.9 °C 34337.4 hPa NNE 9 km/h 9 km/h 66 % 0 mm 49.0 W/m2 SCT
17:24 -7.3 °C -10.9 °C 34337.4 hPa Calm     66 % 0 mm 47.0 W/m2 SCT
17:29 -7.3 °C -10.8 °C 34347.6 hPa Calm     67 % 0 mm 28.0 W/m2 BKN
17:34 -7.6 °C -10.9 °C 34347.6 hPa NE 6 km/h 6 km/h 68 % 0 mm 16.0 W/m2 BKN
17:39 -7.9 °C -11.1 °C 34347.6 hPa Calm     69 % 0 mm 11.0 W/m2 BKN
17:44 -8.2 °C -11.3 °C 34347.6 hPa NNE 6 km/h   70 % 0 mm 9.0 W/m2 BKN
17:49 -8.5 °C -11.4 °C 34347.6 hPa Calm     71 % 0 mm 5.0 W/m2 OVC
17:54 -8.8 °C -11.6 °C 34347.6 hPa Calm     72 % 0 mm 0.0 W/m2 OVC
17:59 -9.1 °C -11.8 °C 34347.6 hPa Calm     73 % 0 mm 0.0 W/m2 OVC
18:04 -9.4 °C -12.1 °C 34347.6 hPa Calm     73 % 0 mm 0.0 W/m2 CLR
18:09 -9.4 °C -12 °C 34347.6 hPa Calm     74 % 0 mm 0.0 W/m2 CLR
18:14 -9.8 °C -12.3 °C 34361.1 hPa Calm     74 % 0 mm 0.0 W/m2 CLR
18:19 -10.1 °C -12.6 °C 34361.1 hPa Calm     74 % 0 mm 0.0 W/m2 CLR
18:24 -10.1 °C -12.4 °C 34361.1 hPa Calm     75 % 0 mm 0.0 W/m2 CLR
18:29 -10.4 °C -12.8 °C 34361.1 hPa Calm     75 % 0 mm 0.0 W/m2 CLR
18:34 -10.4 °C -12.7 °C 34371.3 hPa Calm     76 % 0 mm 0.0 W/m2 CLR
18:39 -10.4 °C -12.7 °C 34371.3 hPa Calm     76 % 0 mm 0.0 W/m2 CLR
18:44 -10.7 °C -12.9 °C 34371.3 hPa Calm     77 % 0 mm 0.0 W/m2 CLR
18:49 -10.7 °C -12.9 °C 34371.3 hPa Calm     77 % 0 mm 0.0 W/m2 CLR
18:54 -10.7 °C -12.7 °C 34371.3 hPa Calm     78 % 0 mm 0.0 W/m2 CLR
18:59 -11 °C -13.1 °C 34371.3 hPa Calm     78 % 0 mm 0.0 W/m2 CLR
19:04 -11 °C -12.9 °C 34371.3 hPa Calm     79 % 0 mm 0.0 W/m2 CLR
19:09 -11 °C -13.1 °C 34384.8 hPa Calm     78 % 0 mm 0.0 W/m2 CLR
19:14 -11 °C -13.1 °C 34384.8 hPa Calm     78 % 0 mm 0.0 W/m2 CLR
19:19 -11 °C -12.8 °C 34384.8 hPa Calm     80 % 0 mm 0.0 W/m2 CLR
19:24 -11.3 °C -13.1 °C 34384.8 hPa Calm     81 % 0 mm 0.0 W/m2 CLR
19:29 -11.3 °C -12.9 °C 34384.8 hPa Calm     82 % 0 mm 0.0 W/m2 CLR
19:34 -11.3 °C -13.1 °C 34384.8 hPa Calm     81 % 0 mm 0.0 W/m2 CLR
19:39 -11.3 °C -13.2 °C 34384.8 hPa Calm     80 % 0 mm 0.0 W/m2 CLR
19:44 -11.3 °C -13.2 °C 34384.8 hPa Calm     79 % 0 mm 0.0 W/m2 CLR
19:49 -11 °C -12.8 °C 34384.8 hPa Calm     80 % 0 mm 0.0 W/m2 CLR
19:54 -10.7 °C -12.4 °C 34384.8 hPa Calm     81 % 0 mm 0.0 W/m2 CLR
19:59 -10.7 °C -12.3 °C 34384.8 hPa Calm     82 % 0 mm 0.0 W/m2 CLR
20:04 -11 °C -12.7 °C 34384.8 hPa Calm     82 % 0 mm 0.0 W/m2 CLR
20:09 -11 °C -12.7 °C 34384.8 hPa Calm     81 % 0 mm 0.0 W/m2 CLR
20:14 -11 °C -12.7 °C 34384.8 hPa Calm     81 % 0 mm 0.0 W/m2 CLR
20:19 -11.3 °C -13.1 °C 34384.8 hPa Calm     81 % 0 mm 0.0 W/m2 CLR
20:24 -11.3 °C -12.9 °C 34384.8 hPa Calm     82 % 0 mm 0.0 W/m2 CLR
20:29 -11.6 °C -13.2 °C 34395 hPa Calm     82 % 0 mm 0.0 W/m2 CLR
20:34 -11.6 °C -13.2 °C 34384.8 hPa Calm     83 % 0 mm 0.0 W/m2 CLR
20:40 -11.9 °C -13.4 °C 34384.8 hPa Calm     83 % 0 mm 0.0 W/m2 CLR
20:45 -11.9 °C -13.4 °C 34395 hPa Calm     83 % 0 mm 0.0 W/m2 CLR
20:50 -11.9 °C -13.4 °C 34395 hPa Calm     83 % 0 mm 0.0 W/m2 CLR
20:55 -11.9 °C -13.4 °C 34395 hPa Calm     83 % 0 mm 0.0 W/m2 CLR
21:00 -11.9 °C -13.4 °C 34395 hPa Calm     83 % 0 mm 0.0 W/m2 CLR
21:05 -11.9 °C -13.4 °C 34395 hPa Calm     84 % 0 mm 0.0 W/m2 CLR
21:10 -11.6 °C -12.9 °C 34395 hPa Calm     85 % 0 mm 0.0 W/m2 CLR
21:15 -11.6 °C -12.9 °C 34395 hPa Calm     85 % 0 mm 0.0 W/m2 CLR
21:20 -11.6 °C -13.1 °C 34395 hPa Calm     84 % 0 mm 0.0 W/m2 CLR
21:25 -11.6 °C -13.1 °C 34395 hPa Calm     84 % 0 mm 0.0 W/m2 CLR
21:30 -11.6 °C -13.1 °C 34395 hPa Calm     84 % 0 mm 0.0 W/m2 CLR
21:35 -11.9 °C -13.4 °C 34395 hPa Calm     84 % 0 mm 0.0 W/m2 CLR
21:40 -11.9 °C -13.4 °C 34395 hPa Calm     83 % 0 mm 0.0 W/m2 CLR
21:45 -11.9 °C -13.4 °C 34395 hPa Calm     83 % 0 mm 0.0 W/m2 CLR
21:50 -12.2 °C -13.8 °C 34395 hPa Calm     83 % 0 mm 0.0 W/m2 CLR
21:55 -12.2 °C -13.7 °C 34405.1 hPa Calm     84 % 0 mm 0.0 W/m2 CLR
22:00 -12.2 °C -13.7 °C 34405.1 hPa Calm     84 % 0 mm 0.0 W/m2 CLR
22:05 -12.6 °C -13.8 °C 34405.1 hPa Calm     85 % 0 mm 0.0 W/m2 CLR
22:10 -12.6 °C -13.9 °C 34405.1 hPa Calm     84 % 0 mm 0.0 W/m2 CLR
22:15 -12.6 °C -13.9 °C 34405.1 hPa Calm     84 % 0 mm 0.0 W/m2 CLR
22:20 -12.6 °C -13.9 °C 34405.1 hPa Calm     84 % 0 mm 0.0 W/m2 CLR
22:25 -12.6 °C -13.9 °C 34405.1 hPa Calm     84 % 0 mm 0.0 W/m2 CLR
22:30 -12.6 °C -13.9 °C 34405.1 hPa Calm     84 % 0 mm 0.0 W/m2 CLR
22:35 -12.6 °C -13.8 °C 34405.1 hPa Calm     85 % 0 mm 0.0 W/m2 CLR
22:40 -12.6 °C -13.8 °C 34405.1 hPa Calm     85 % 0 mm 0.0 W/m2 CLR
22:45 -12.6 °C -13.8 °C 34405.1 hPa Calm     85 % 0 mm 0.0 W/m2 CLR
22:50 -12.6 °C -13.9 °C 34405.1 hPa Calm     84 % 0 mm 0.0 W/m2 CLR
22:55 -12.6 °C -13.9 °C 34405.1 hPa Calm     84 % 0 mm 0.0 W/m2 CLR
23:00 -12.6 °C -13.9 °C 34405.1 hPa Calm     84 % 0 mm 0.0 W/m2 CLR
23:05 -12.6 °C -13.9 °C 34395 hPa Calm     84 % 0 mm 0.0 W/m2 CLR
23:10 -12.6 °C -13.8 °C 34395 hPa Calm     85 % 0 mm 0.0 W/m2 CLR
23:15 -12.8 °C -14.2 °C 34395 hPa Calm     85 % 0 mm 0.0 W/m2 CLR
23:20 -12.8 °C -14.2 °C 34395 hPa Calm     85 % 0 mm 0.0 W/m2 CLR
23:25 -12.8 °C -14.2 °C 34395 hPa Calm     85 % 0 mm 0.0 W/m2 CLR
23:30 -12.8 °C -14.2 °C 34395 hPa Calm     85 % 0 mm 0.0 W/m2 CLR
23:40 -12.8 °C -14.2 °C 34395 hPa Calm     85 % 0 mm 0.0 W/m2 CLR
23:45 -12.8 °C -14.2 °C 34384.8 hPa Calm     85 % 0 mm 0.0 W/m2 CLR
23:50 -12.8 °C -14.2 °C 34384.8 hPa Calm     85 % 0 mm 0.0 W/m2 CLR
23:55 -12.8 °C -14.2 °C 34384.8 hPa Calm     85 % 0 mm 0.0 W/m2 CLR
Lo Temps de Massalio
Compliments of Weather Underground - 1.25 mb